sensor_id;sensor_type;location;lat;lon;timestamp;temperature;humidity
40287;DHT22;25998;46.604;13.610;2023-07-20T00:02:17;19.10;99.90
40287;DHT22;25998;46.604;13.610;2023-07-20T00:05:27;19.00;99.90
40287;DHT22;25998;46.604;13.610;2023-07-20T00:08:38;18.90;99.90
40287;DHT22;25998;46.604;13.610;2023-07-20T00:11:50;18.90;99.90
40287;DHT22;25998;46.604;13.610;2023-07-20T00:15:01;19.00;99.90
40287;DHT22;25998;46.604;13.610;2023-07-20T00:18:12;19.10;99.90
40287;DHT22;25998;46.604;13.610;2023-07-20T00:21:25;19.10;99.90
40287;DHT22;25998;46.604;13.610;2023-07-20T00:24:36;19.10;99.90
40287;DHT22;25998;46.604;13.610;2023-07-20T00:27:47;19.10;99.90
40287;DHT22;25998;46.604;13.610;2023-07-20T00:30:59;19.00;99.90
40287;DHT22;25998;46.604;13.610;2023-07-20T00:34:10;18.90;99.90
40287;DHT22;25998;46.604;13.610;2023-07-20T00:37:21;18.70;99.90
40287;DHT22;25998;46.604;13.610;2023-07-20T00:40:39;18.70;99.90
40287;DHT22;25998;46.604;13.610;2023-07-20T00:43:50;18.70;99.90
40287;DHT22;25998;46.604;13.610;2023-07-20T00:47:01;18.60;99.90
40287;DHT22;25998;46.604;13.610;2023-07-20T00:50:12;18.70;99.90
40287;DHT22;25998;46.604;13.610;2023-07-20T00:53:23;18.90;99.90
40287;DHT22;25998;46.604;13.610;2023-07-20T00:56:34;19.00;99.90
40287;DHT22;25998;46.604;13.610;2023-07-20T00:59:45;19.00;99.90
40287;DHT22;25998;46.604;13.610;2023-07-20T01:02:56;18.90;99.90
40287;DHT22;25998;46.604;13.610;2023-07-20T01:06:33;18.70;99.90
40287;DHT22;25998;46.604;13.610;2023-07-20T01:13:17;18.90;99.90
40287;DHT22;25998;46.604;13.610;2023-07-20T01:16:28;18.70;99.90
40287;DHT22;25998;46.604;13.610;2023-07-20T01:19:39;18.60;99.90
40287;DHT22;25998;46.604;13.610;2023-07-20T01:23:27;18.70;99.90
40287;DHT22;25998;46.604;13.610;2023-07-20T01:33:46;18.60;99.90
40287;DHT22;25998;46.604;13.610;2023-07-20T01:36:59;18.50;99.90
40287;DHT22;25998;46.604;13.610;2023-07-20T01:40:13;18.50;99.90
40287;DHT22;25998;46.604;13.610;2023-07-20T01:43:25;18.40;99.90
40287;DHT22;25998;46.604;13.610;2023-07-20T01:46:36;18.50;99.90
40287;DHT22;25998;46.604;13.610;2023-07-20T01:49:47;18.50;99.90
40287;DHT22;25998;46.604;13.610;2023-07-20T01:52:58;18.60;99.90
40287;DHT22;25998;46.604;13.610;2023-07-20T01:56:09;18.60;99.90
40287;DHT22;25998;46.604;13.610;2023-07-20T01:59:22;18.60;99.90
40287;DHT22;25998;46.604;13.610;2023-07-20T02:02:33;18.50;99.90
40287;DHT22;25998;46.604;13.610;2023-07-20T02:05:44;18.60;99.90
40287;DHT22;25998;46.604;13.610;2023-07-20T02:08:55;18.50;99.90
40287;DHT22;25998;46.604;13.610;2023-07-20T02:12:06;18.50;99.90
40287;DHT22;25998;46.604;13.610;2023-07-20T02:15:17;18.50;99.90
40287;DHT22;25998;46.604;13.610;2023-07-20T02:18:29;18.60;99.90
40287;DHT22;25998;46.604;13.610;2023-07-20T02:21:40;18.60;99.90
40287;DHT22;25998;46.604;13.610;2023-07-20T02:24:51;18.60;99.90
40287;DHT22;25998;46.604;13.610;2023-07-20T02:28:01;18.60;99.90
40287;DHT22;25998;46.604;13.610;2023-07-20T02:31:12;18.40;99.90
40287;DHT22;25998;46.604;13.610;2023-07-20T02:34:23;18.50;99.90
40287;DHT22;25998;46.604;13.610;2023-07-20T02:37:34;18.50;99.90
40287;DHT22;25998;46.604;13.610;2023-07-20T02:40:45;18.30;99.90
40287;DHT22;25998;46.604;13.610;2023-07-20T02:43:56;18.10;99.90
40287;DHT22;25998;46.604;13.610;2023-07-20T02:47:07;17.90;99.90
40287;DHT22;25998;46.604;13.610;2023-07-20T02:50:18;17.80;99.90
40287;DHT22;25998;46.604;13.610;2023-07-20T02:53:29;17.70;99.90
40287;DHT22;25998;46.604;13.610;2023-07-20T02:56:39;17.60;99.90
40287;DHT22;25998;46.604;13.610;2023-07-20T02:59:50;17.70;99.90
40287;DHT22;25998;46.604;13.610;2023-07-20T03:03:01;17.80;99.90
40287;DHT22;25998;46.604;13.610;2023-07-20T03:06:14;17.90;99.90
40287;DHT22;25998;46.604;13.610;2023-07-20T03:09:25;18.00;99.90
40287;DHT22;25998;46.604;13.610;2023-07-20T03:12:36;18.10;99.90
40287;DHT22;25998;46.604;13.610;2023-07-20T03:15:47;18.00;99.90
40287;DHT22;25998;46.604;13.610;2023-07-20T03:18:58;17.90;99.90
40287;DHT22;25998;46.604;13.610;2023-07-20T03:22:09;17.80;99.90
40287;DHT22;25998;46.604;13.610;2023-07-20T03:25:19;17.60;99.90
40287;DHT22;25998;46.604;13.610;2023-07-20T03:28:31;17.40;99.90
40287;DHT22;25998;46.604;13.610;2023-07-20T03:31:42;17.40;99.90
40287;DHT22;25998;46.604;13.610;2023-07-20T03:34:53;17.70;99.90
40287;DHT22;25998;46.604;13.610;2023-07-20T03:38:04;17.70;99.90
40287;DHT22;25998;46.604;13.610;2023-07-20T03:41:15;17.70;99.90
40287;DHT22;25998;46.604;13.610;2023-07-20T03:44:26;17.60;99.90
40287;DHT22;25998;46.604;13.610;2023-07-20T03:47:37;17.50;99.90
40287;DHT22;25998;46.604;13.610;2023-07-20T03:50:49;17.50;99.90
40287;DHT22;25998;46.604;13.610;2023-07-20T03:54:00;17.50;99.90
40287;DHT22;25998;46.604;13.610;2023-07-20T03:57:11;17.50;99.90
40287;DHT22;25998;46.604;13.610;2023-07-20T04:00:22;17.50;99.90
40287;DHT22;25998;46.604;13.610;2023-07-20T04:03:33;17.70;99.90
40287;DHT22;25998;46.604;13.610;2023-07-20T04:06:44;17.70;99.90
40287;DHT22;25998;46.604;13.610;2023-07-20T04:09:55;17.60;99.90
40287;DHT22;25998;46.604;13.610;2023-07-20T04:13:06;17.60;99.90
40287;DHT22;25998;46.604;13.610;2023-07-20T04:16:17;17.50;99.90
40287;DHT22;25998;46.604;13.610;2023-07-20T04:19:30;17.60;99.90
40287;DHT22;25998;46.604;13.610;2023-07-20T04:22:41;17.70;99.90
40287;DHT22;25998;46.604;13.610;2023-07-20T04:25:52;17.90;99.90
40287;DHT22;25998;46.604;13.610;2023-07-20T04:29:03;17.90;99.90
40287;DHT22;25998;46.604;13.610;2023-07-20T04:32:14;18.00;99.90
40287;DHT22;25998;46.604;13.610;2023-07-20T04:35:44;18.10;99.90
40287;DHT22;25998;46.604;13.610;2023-07-20T04:38:55;17.90;99.90
40287;DHT22;25998;46.604;13.610;2023-07-20T04:42:06;17.90;99.90
40287;DHT22;25998;46.604;13.610;2023-07-20T04:45:17;17.80;99.90
40287;DHT22;25998;46.604;13.610;2023-07-20T04:48:29;17.70;99.90
40287;DHT22;25998;46.604;13.610;2023-07-20T04:51:40;17.60;99.90
40287;DHT22;25998;46.604;13.610;2023-07-20T04:54:51;17.80;99.90
40287;DHT22;25998;46.604;13.610;2023-07-20T04:58:02;18.00;99.90
40287;DHT22;25998;46.604;13.610;2023-07-20T05:01:12;18.00;99.90
40287;DHT22;25998;46.604;13.610;2023-07-20T05:04:23;18.00;99.90
40287;DHT22;25998;46.604;13.610;2023-07-20T05:07:34;18.00;99.90
40287;DHT22;25998;46.604;13.610;2023-07-20T05:10:45;18.10;99.90
40287;DHT22;25998;46.604;13.610;2023-07-20T05:13:56;18.00;99.90
40287;DHT22;25998;46.604;13.610;2023-07-20T05:17:06;17.90;99.90
40287;DHT22;25998;46.604;13.610;2023-07-20T05:20:17;17.80;99.90
40287;DHT22;25998;46.604;13.610;2023-07-20T05:23:28;18.00;99.90
40287;DHT22;25998;46.604;13.610;2023-07-20T05:26:39;18.10;99.90
40287;DHT22;25998;46.604;13.610;2023-07-20T05:29:50;18.10;99.90
40287;DHT22;25998;46.604;13.610;2023-07-20T05:33:02;18.10;99.90
40287;DHT22;25998;46.604;13.610;2023-07-20T05:36:13;18.20;99.90
40287;DHT22;25998;46.604;13.610;2023-07-20T05:39:35;18.30;99.90
40287;DHT22;25998;46.604;13.610;2023-07-20T05:42:47;18.40;99.90
40287;DHT22;25998;46.604;13.610;2023-07-20T05:45:59;18.30;99.90
40287;DHT22;25998;46.604;13.610;2023-07-20T05:49:10;18.40;99.90
40287;DHT22;25998;46.604;13.610;2023-07-20T05:52:21;18.50;99.90
40287;DHT22;25998;46.604;13.610;2023-07-20T05:55:31;18.60;99.90
40287;DHT22;25998;46.604;13.610;2023-07-20T05:58:42;18.70;99.90
40287;DHT22;25998;46.604;13.610;2023-07-20T06:01:53;18.90;99.90
40287;DHT22;25998;46.604;13.610;2023-07-20T06:05:05;19.10;99.90
40287;DHT22;25998;46.604;13.610;2023-07-20T06:08:16;19.10;99.90
40287;DHT22;25998;46.604;13.610;2023-07-20T06:11:26;18.90;99.90
40287;DHT22;25998;46.604;13.610;2023-07-20T06:14:37;18.80;99.90
40287;DHT22;25998;46.604;13.610;2023-07-20T06:17:49;18.70;99.90
40287;DHT22;25998;46.604;13.610;2023-07-20T06:21:00;18.70;99.90
40287;DHT22;25998;46.604;13.610;2023-07-20T06:24:10;18.70;99.90
40287;DHT22;25998;46.604;13.610;2023-07-20T06:27:21;18.60;99.90
40287;DHT22;25998;46.604;13.610;2023-07-20T06:30:34;18.60;99.90
40287;DHT22;25998;46.604;13.610;2023-07-20T06:33:45;18.70;99.90
40287;DHT22;25998;46.604;13.610;2023-07-20T06:36:56;19.00;99.90
40287;DHT22;25998;46.604;13.610;2023-07-20T06:40:07;19.30;99.90
40287;DHT22;25998;46.604;13.610;2023-07-20T06:43:19;19.30;99.90
40287;DHT22;25998;46.604;13.610;2023-07-20T06:46:30;19.30;99.90
40287;DHT22;25998;46.604;13.610;2023-07-20T06:49:41;19.30;99.90
40287;DHT22;25998;46.604;13.610;2023-07-20T06:52:52;19.40;99.90
40287;DHT22;25998;46.604;13.610;2023-07-20T06:56:02;19.50;99.90
40287;DHT22;25998;46.604;13.610;2023-07-20T06:59:13;19.30;99.90
40287;DHT22;25998;46.604;13.610;2023-07-20T07:02:24;19.20;99.90
40287;DHT22;25998;46.604;13.610;2023-07-20T07:05:36;19.10;99.90
40287;DHT22;25998;46.604;13.610;2023-07-20T07:08:48;19.10;99.90
40287;DHT22;25998;46.604;13.610;2023-07-20T07:11:58;19.40;99.90
40287;DHT22;25998;46.604;13.610;2023-07-20T07:15:10;19.60;99.90
40287;DHT22;25998;46.604;13.610;2023-07-20T07:18:24;20.10;99.90
40287;DHT22;25998;46.604;13.610;2023-07-20T07:21:35;20.60;99.90
40287;DHT22;25998;46.604;13.610;2023-07-20T07:24:46;21.10;99.90
40287;DHT22;25998;46.604;13.610;2023-07-20T07:27:57;21.70;99.90
40287;DHT22;25998;46.604;13.610;2023-07-20T07:31:07;22.30;99.90
40287;DHT22;25998;46.604;13.610;2023-07-20T07:34:19;22.50;99.90
40287;DHT22;25998;46.604;13.610;2023-07-20T07:37:30;22.60;99.90
40287;DHT22;25998;46.604;13.610;2023-07-20T07:40:41;22.90;99.90
40287;DHT22;25998;46.604;13.610;2023-07-20T07:43:52;22.80;99.90
40287;DHT22;25998;46.604;13.610;2023-07-20T07:47:03;22.40;99.90
40287;DHT22;25998;46.604;13.610;2023-07-20T07:50:14;23.00;99.90
40287;DHT22;25998;46.604;13.610;2023-07-20T07:53:25;23.40;99.90
40287;DHT22;25998;46.604;13.610;2023-07-20T07:56:36;23.70;99.90
40287;DHT22;25998;46.604;13.610;2023-07-20T07:59:47;23.20;99.90
40287;DHT22;25998;46.604;13.610;2023-07-20T08:02:58;23.40;99.90
40287;DHT22;25998;46.604;13.610;2023-07-20T08:06:09;23.60;99.90
40287;DHT22;25998;46.604;13.610;2023-07-20T08:09:19;24.00;99.90
40287;DHT22;25998;46.604;13.610;2023-07-20T08:12:31;24.00;99.90
40287;DHT22;25998;46.604;13.610;2023-07-20T08:15:50;23.80;99.90
40287;DHT22;25998;46.604;13.610;2023-07-20T08:19:04;24.00;99.90
40287;DHT22;25998;46.604;13.610;2023-07-20T08:22:15;24.10;99.90
40287;DHT22;25998;46.604;13.610;2023-07-20T08:25:26;24.10;99.90
40287;DHT22;25998;46.604;13.610;2023-07-20T08:28:37;23.90;99.90
40287;DHT22;25998;46.604;13.610;2023-07-20T08:31:48;23.90;99.90
40287;DHT22;25998;46.604;13.610;2023-07-20T08:34:59;24.10;99.90
40287;DHT22;25998;46.604;13.610;2023-07-20T08:38:10;23.90;99.90
40287;DHT22;25998;46.604;13.610;2023-07-20T08:41:21;24.20;99.90
40287;DHT22;25998;46.604;13.610;2023-07-20T08:44:33;24.30;99.90
40287;DHT22;25998;46.604;13.610;2023-07-20T08:47:45;24.90;99.90
40287;DHT22;25998;46.604;13.610;2023-07-20T08:50:58;25.10;99.90
40287;DHT22;25998;46.604;13.610;2023-07-20T08:54:11;25.10;99.90
40287;DHT22;25998;46.604;13.610;2023-07-20T08:57:23;25.20;99.90
40287;DHT22;25998;46.604;13.610;2023-07-20T09:00:35;25.30;99.90
40287;DHT22;25998;46.604;13.610;2023-07-20T09:03:47;25.40;99.90
40287;DHT22;25998;46.604;13.610;2023-07-20T09:06:58;25.10;99.90
40287;DHT22;25998;46.604;13.610;2023-07-20T09:10:09;24.90;99.90
40287;DHT22;25998;46.604;13.610;2023-07-20T09:13:21;25.00;99.90
40287;DHT22;25998;46.604;13.610;2023-07-20T09:16:32;25.60;99.90
40287;DHT22;25998;46.604;13.610;2023-07-20T09:19:46;25.40;99.50
40287;DHT22;25998;46.604;13.610;2023-07-20T09:22:58;25.60;99.10
40287;DHT22;25998;46.604;13.610;2023-07-20T09:26:13;25.60;98.00
40287;DHT22;25998;46.604;13.610;2023-07-20T09:29:24;25.60;97.80
40287;DHT22;25998;46.604;13.610;2023-07-20T09:35:53;25.90;98.70
40287;DHT22;25998;46.604;13.610;2023-07-20T09:39:04;25.70;98.80
40287;DHT22;25998;46.604;13.610;2023-07-20T09:42:15;25.30;98.30
40287;DHT22;25998;46.604;13.610;2023-07-20T09:45:33;25.60;98.60
40287;DHT22;25998;46.604;13.610;2023-07-20T09:48:52;26.30;98.80
40287;DHT22;25998;46.604;13.610;2023-07-20T09:52:09;26.90;99.70
40287;DHT22;25998;46.604;13.610;2023-07-20T09:55:21;26.90;99.70
40287;DHT22;25998;46.604;13.610;2023-07-20T09:58:34;27.10;97.60
40287;DHT22;25998;46.604;13.610;2023-07-20T10:01:46;27.40;96.80
40287;DHT22;25998;46.604;13.610;2023-07-20T10:05:02;27.50;98.50
40287;DHT22;25998;46.604;13.610;2023-07-20T10:08:15;27.20;98.30
40287;DHT22;25998;46.604;13.610;2023-07-20T10:11:30;26.90;98.70
40287;DHT22;25998;46.604;13.610;2023-07-20T10:14:47;26.80;98.20
40287;DHT22;25998;46.604;13.610;2023-07-20T10:18:10;26.80;98.50
40287;DHT22;25998;46.604;13.610;2023-07-20T10:21:23;27.00;98.40
40287;DHT22;25998;46.604;13.610;2023-07-20T10:24:34;27.30;99.00
40287;DHT22;25998;46.604;13.610;2023-07-20T10:27:45;27.40;98.40
40287;DHT22;25998;46.604;13.610;2023-07-20T10:30:57;27.40;98.60
40287;DHT22;25998;46.604;13.610;2023-07-20T10:34:08;27.50;98.10
40287;DHT22;25998;46.604;13.610;2023-07-20T10:37:51;27.60;97.20
40287;DHT22;25998;46.604;13.610;2023-07-20T10:41:02;27.90;96.00
40287;DHT22;25998;46.604;13.610;2023-07-20T10:44:13;28.10;97.00
40287;DHT22;25998;46.604;13.610;2023-07-20T10:47:45;28.10;96.40
40287;DHT22;25998;46.604;13.610;2023-07-20T10:51:11;28.10;97.80
40287;DHT22;25998;46.604;13.610;2023-07-20T10:57:38;28.00;95.60
40287;DHT22;25998;46.604;13.610;2023-07-20T11:01:02;28.00;96.60
40287;DHT22;25998;46.604;13.610;2023-07-20T11:04:13;28.00;96.70
40287;DHT22;25998;46.604;13.610;2023-07-20T11:07:37;28.00;96.10
40287;DHT22;25998;46.604;13.610;2023-07-20T11:11:27;27.30;96.60
40287;DHT22;25998;46.604;13.610;2023-07-20T11:15:03;27.00;97.00
40287;DHT22;25998;46.604;13.610;2023-07-20T11:18:14;26.90;96.90
40287;DHT22;25998;46.604;13.610;2023-07-20T11:21:25;27.00;96.40
40287;DHT22;25998;46.604;13.610;2023-07-20T11:24:40;27.00;96.90
40287;DHT22;25998;46.604;13.610;2023-07-20T11:27:52;26.80;97.50
40287;DHT22;25998;46.604;13.610;2023-07-20T11:31:03;27.30;96.80
40287;DHT22;25998;46.604;13.610;2023-07-20T11:34:16;27.90;97.40
40287;DHT22;25998;46.604;13.610;2023-07-20T11:37:26;28.30;97.20
40287;DHT22;25998;46.604;13.610;2023-07-20T11:40:45;28.30;95.60
40287;DHT22;25998;46.604;13.610;2023-07-20T11:43:57;27.90;95.90
40287;DHT22;25998;46.604;13.610;2023-07-20T11:47:09;27.90;96.10
40287;DHT22;25998;46.604;13.610;2023-07-20T11:50:21;27.50;97.00
40287;DHT22;25998;46.604;13.610;2023-07-20T11:53:32;27.20;97.40
40287;DHT22;25998;46.604;13.610;2023-07-20T11:56:45;27.10;97.40
40287;DHT22;25998;46.604;13.610;2023-07-20T12:00:03;27.10;96.90
40287;DHT22;25998;46.604;13.610;2023-07-20T12:03:16;26.90;97.00
40287;DHT22;25998;46.604;13.610;2023-07-20T12:06:28;26.80;97.00
40287;DHT22;25998;46.604;13.610;2023-07-20T12:09:39;27.50;97.30
40287;DHT22;25998;46.604;13.610;2023-07-20T12:12:50;28.00;95.80
40287;DHT22;25998;46.604;13.610;2023-07-20T12:16:14;27.80;96.50
40287;DHT22;25998;46.604;13.610;2023-07-20T12:19:25;27.80;96.50
40287;DHT22;25998;46.604;13.610;2023-07-20T12:22:41;28.40;98.10
40287;DHT22;25998;46.604;13.610;2023-07-20T12:25:56;28.60;95.90
40287;DHT22;25998;46.604;13.610;2023-07-20T12:29:07;28.10;95.20
40287;DHT22;25998;46.604;13.610;2023-07-20T12:32:18;27.70;95.10
40287;DHT22;25998;46.604;13.610;2023-07-20T12:35:30;27.60;96.40
40287;DHT22;25998;46.604;13.610;2023-07-20T12:38:40;28.20;96.90
40287;DHT22;25998;46.604;13.610;2023-07-20T12:41:52;28.70;96.00
40287;DHT22;25998;46.604;13.610;2023-07-20T12:45:03;28.50;95.80
40287;DHT22;25998;46.604;13.610;2023-07-20T12:48:14;28.70;96.80
40287;DHT22;25998;46.604;13.610;2023-07-20T12:51:25;28.90;95.80
40287;DHT22;25998;46.604;13.610;2023-07-20T12:54:36;28.70;95.90
40287;DHT22;25998;46.604;13.610;2023-07-20T12:57:47;28.60;96.00
40287;DHT22;25998;46.604;13.610;2023-07-20T13:00:58;28.80;95.70
40287;DHT22;25998;46.604;13.610;2023-07-20T13:04:09;28.70;95.70
40287;DHT22;25998;46.604;13.610;2023-07-20T13:07:39;28.90;96.40
40287;DHT22;25998;46.604;13.610;2023-07-20T13:10:50;28.70;95.70
40287;DHT22;25998;46.604;13.610;2023-07-20T13:14:02;28.30;96.50
40287;DHT22;25998;46.604;13.610;2023-07-20T13:17:12;28.40;97.20
40287;DHT22;25998;46.604;13.610;2023-07-20T13:20:23;28.60;95.90
40287;DHT22;25998;46.604;13.610;2023-07-20T13:23:34;28.40;96.80
40287;DHT22;25998;46.604;13.610;2023-07-20T13:26:45;28.20;96.30
40287;DHT22;25998;46.604;13.610;2023-07-20T13:29:56;28.20;95.90
40287;DHT22;25998;46.604;13.610;2023-07-20T13:33:07;28.30;98.20
40287;DHT22;25998;46.604;13.610;2023-07-20T13:36:17;28.40;97.70
40287;DHT22;25998;46.604;13.610;2023-07-20T13:39:28;28.60;97.50
40287;DHT22;25998;46.604;13.610;2023-07-20T13:42:39;29.00;95.30
40287;DHT22;25998;46.604;13.610;2023-07-20T13:45:53;29.30;94.30
40287;DHT22;25998;46.604;13.610;2023-07-20T13:49:04;29.30;96.20
40287;DHT22;25998;46.604;13.610;2023-07-20T13:52:15;29.40;94.70
40287;DHT22;25998;46.604;13.610;2023-07-20T13:55:26;29.40;94.40
40287;DHT22;25998;46.604;13.610;2023-07-20T13:58:38;28.90;95.30
40287;DHT22;25998;46.604;13.610;2023-07-20T14:01:49;28.90;95.90
40287;DHT22;25998;46.604;13.610;2023-07-20T14:04:59;29.40;95.10
40287;DHT22;25998;46.604;13.610;2023-07-20T14:08:10;29.80;94.70
40287;DHT22;25998;46.604;13.610;2023-07-20T14:11:21;30.10;94.70
40287;DHT22;25998;46.604;13.610;2023-07-20T14:14:32;30.00;93.50
40287;DHT22;25998;46.604;13.610;2023-07-20T14:17:43;30.10;93.90
40287;DHT22;25998;46.604;13.610;2023-07-20T14:20:54;29.70;94.40
40287;DHT22;25998;46.604;13.610;2023-07-20T14:24:05;29.70;94.60
40287;DHT22;25998;46.604;13.610;2023-07-20T14:27:16;29.80;93.50
40287;DHT22;25998;46.604;13.610;2023-07-20T14:30:26;29.60;94.90
40287;DHT22;25998;46.604;13.610;2023-07-20T14:33:37;29.50;94.80
40287;DHT22;25998;46.604;13.610;2023-07-20T14:36:48;29.50;94.20
40287;DHT22;25998;46.604;13.610;2023-07-20T14:40:00;29.50;93.20
40287;DHT22;25998;46.604;13.610;2023-07-20T14:43:11;29.50;93.30
40287;DHT22;25998;46.604;13.610;2023-07-20T14:46:22;29.50;92.60
40287;DHT22;25998;46.604;13.610;2023-07-20T14:49:33;29.60;92.50
40287;DHT22;25998;46.604;13.610;2023-07-20T14:52:44;29.70;92.80
40287;DHT22;25998;46.604;13.610;2023-07-20T14:55:59;29.70;93.20
40287;DHT22;25998;46.604;13.610;2023-07-20T14:59:10;29.60;93.50
40287;DHT22;25998;46.604;13.610;2023-07-20T15:02:21;29.40;92.00
40287;DHT22;25998;46.604;13.610;2023-07-20T15:05:32;29.10;92.90
40287;DHT22;25998;46.604;13.610;2023-07-20T15:08:43;29.00;95.90
40287;DHT22;25998;46.604;13.610;2023-07-20T15:11:54;29.10;96.30
40287;DHT22;25998;46.604;13.610;2023-07-20T15:15:07;29.30;93.10
40287;DHT22;25998;46.604;13.610;2023-07-20T15:18:18;29.60;94.10
40287;DHT22;25998;46.604;13.610;2023-07-20T15:21:29;29.70;94.50
40287;DHT22;25998;46.604;13.610;2023-07-20T15:24:41;29.50;92.80
40287;DHT22;25998;46.604;13.610;2023-07-20T15:27:52;29.30;91.70
40287;DHT22;25998;46.604;13.610;2023-07-20T15:31:03;29.50;95.00
40287;DHT22;25998;46.604;13.610;2023-07-20T15:34:15;29.70;94.60
40287;DHT22;25998;46.604;13.610;2023-07-20T15:37:26;29.90;93.30
40287;DHT22;25998;46.604;13.610;2023-07-20T15:40:37;29.90;94.30
40287;DHT22;25998;46.604;13.610;2023-07-20T15:43:47;29.70;92.90
40287;DHT22;25998;46.604;13.610;2023-07-20T15:46:59;29.40;92.90
40287;DHT22;25998;46.604;13.610;2023-07-20T15:50:10;29.30;92.70
40287;DHT22;25998;46.604;13.610;2023-07-20T15:53:21;29.10;93.50
40287;DHT22;25998;46.604;13.610;2023-07-20T15:56:31;28.90;93.20
40287;DHT22;25998;46.604;13.610;2023-07-20T15:59:42;28.80;93.50
40287;DHT22;25998;46.604;13.610;2023-07-20T16:02:53;28.50;94.20
40287;DHT22;25998;46.604;13.610;2023-07-20T16:06:04;28.50;94.50
40287;DHT22;25998;46.604;13.610;2023-07-20T16:09:15;28.40;94.30
40287;DHT22;25998;46.604;13.610;2023-07-20T16:12:27;28.10;94.40
40287;DHT22;25998;46.604;13.610;2023-07-20T16:15:40;27.90;94.80
40287;DHT22;25998;46.604;13.610;2023-07-20T16:18:51;27.80;94.90
40287;DHT22;25998;46.604;13.610;2023-07-20T16:22:04;27.50;95.20
40287;DHT22;25998;46.604;13.610;2023-07-20T16:25:15;27.30;95.50
40287;DHT22;25998;46.604;13.610;2023-07-20T16:28:26;27.10;95.60
40287;DHT22;25998;46.604;13.610;2023-07-20T16:31:37;26.90;96.20
40287;DHT22;25998;46.604;13.610;2023-07-20T16:34:48;26.90;96.60
40287;DHT22;25998;46.604;13.610;2023-07-20T16:37:58;26.80;96.80
40287;DHT22;25998;46.604;13.610;2023-07-20T16:41:12;26.60;97.00
40287;DHT22;25998;46.604;13.610;2023-07-20T16:44:23;26.40;97.30
40287;DHT22;25998;46.604;13.610;2023-07-20T16:47:34;26.40;97.80
40287;DHT22;25998;46.604;13.610;2023-07-20T16:50:45;26.40;97.20
40287;DHT22;25998;46.604;13.610;2023-07-20T16:53:56;26.20;97.20
40287;DHT22;25998;46.604;13.610;2023-07-20T16:57:07;26.10;97.00
40287;DHT22;25998;46.604;13.610;2023-07-20T17:00:19;25.80;96.90
40287;DHT22;25998;46.604;13.610;2023-07-20T17:03:31;25.60;97.10
40287;DHT22;25998;46.604;13.610;2023-07-20T17:06:42;25.30;96.90
40287;DHT22;25998;46.604;13.610;2023-07-20T17:09:53;25.10;96.90
40287;DHT22;25998;46.604;13.610;2023-07-20T17:13:04;25.20;97.70
40287;DHT22;25998;46.604;13.610;2023-07-20T17:16:15;25.30;97.10
40287;DHT22;25998;46.604;13.610;2023-07-20T17:19:26;25.30;96.60
40287;DHT22;25998;46.604;13.610;2023-07-20T17:22:38;25.00;97.40
40287;DHT22;25998;46.604;13.610;2023-07-20T17:25:49;24.80;97.40
40287;DHT22;25998;46.604;13.610;2023-07-20T17:29:00;24.80;98.10
40287;DHT22;25998;46.604;13.610;2023-07-20T17:32:12;24.60;98.20
40287;DHT22;25998;46.604;13.610;2023-07-20T17:35:22;24.50;98.20
40287;DHT22;25998;46.604;13.610;2023-07-20T17:38:33;24.40;98.80
40287;DHT22;25998;46.604;13.610;2023-07-20T17:41:44;24.30;98.30
40287;DHT22;25998;46.604;13.610;2023-07-20T17:44:56;24.30;98.60
40287;DHT22;25998;46.604;13.610;2023-07-20T17:48:07;24.20;98.60
40287;DHT22;25998;46.604;13.610;2023-07-20T17:51:18;24.10;98.70
40287;DHT22;25998;46.604;13.610;2023-07-20T17:54:28;24.10;98.20
40287;DHT22;25998;46.604;13.610;2023-07-20T17:57:40;24.20;97.90
40287;DHT22;25998;46.604;13.610;2023-07-20T18:00:51;24.30;97.40
40287;DHT22;25998;46.604;13.610;2023-07-20T18:04:03;24.20;97.70
40287;DHT22;25998;46.604;13.610;2023-07-20T18:07:14;24.10;98.20
40287;DHT22;25998;46.604;13.610;2023-07-20T18:10:25;24.00;97.70
40287;DHT22;25998;46.604;13.610;2023-07-20T18:13:36;24.10;98.50
40287;DHT22;25998;46.604;13.610;2023-07-20T18:16:47;24.00;97.80
40287;DHT22;25998;46.604;13.610;2023-07-20T18:19:58;23.90;98.70
40287;DHT22;25998;46.604;13.610;2023-07-20T18:23:09;23.60;97.80
40287;DHT22;25998;46.604;13.610;2023-07-20T18:26:19;23.40;97.90
40287;DHT22;25998;46.604;13.610;2023-07-20T18:29:30;23.20;98.20
40287;DHT22;25998;46.604;13.610;2023-07-20T18:32:41;23.20;98.10
40287;DHT22;25998;46.604;13.610;2023-07-20T18:35:53;23.20;98.50
40287;DHT22;25998;46.604;13.610;2023-07-20T18:39:04;23.30;98.50
40287;DHT22;25998;46.604;13.610;2023-07-20T18:42:15;23.20;99.10
40287;DHT22;25998;46.604;13.610;2023-07-20T18:45:27;23.20;99.00
40287;DHT22;25998;46.604;13.610;2023-07-20T18:48:38;23.10;99.10
40287;DHT22;25998;46.604;13.610;2023-07-20T18:51:49;23.00;99.10
40287;DHT22;25998;46.604;13.610;2023-07-20T18:55:00;22.90;99.40
40287;DHT22;25998;46.604;13.610;2023-07-20T18:58:11;22.80;99.90
40287;DHT22;25998;46.604;13.610;2023-07-20T19:01:22;22.90;99.90
40287;DHT22;25998;46.604;13.610;2023-07-20T19:04:33;22.80;99.70
40287;DHT22;25998;46.604;13.610;2023-07-20T19:07:44;22.70;99.90
40287;DHT22;25998;46.604;13.610;2023-07-20T19:11:00;22.60;99.90
40287;DHT22;25998;46.604;13.610;2023-07-20T19:14:14;22.60;99.90
40287;DHT22;25998;46.604;13.610;2023-07-20T19:17:24;22.70;99.90
40287;DHT22;25998;46.604;13.610;2023-07-20T19:20:36;22.50;99.90
40287;DHT22;25998;46.604;13.610;2023-07-20T19:23:47;22.20;99.90
40287;DHT22;25998;46.604;13.610;2023-07-20T19:26:58;21.90;99.90
40287;DHT22;25998;46.604;13.610;2023-07-20T19:30:09;21.60;99.90
40287;DHT22;25998;46.604;13.610;2023-07-20T19:33:20;21.50;99.90
40287;DHT22;25998;46.604;13.610;2023-07-20T19:36:31;21.50;99.90
40287;DHT22;25998;46.604;13.610;2023-07-20T19:39:42;21.40;99.90
40287;DHT22;25998;46.604;13.610;2023-07-20T19:42:54;21.10;99.90
40287;DHT22;25998;46.604;13.610;2023-07-20T19:46:05;21.00;99.90
40287;DHT22;25998;46.604;13.610;2023-07-20T19:49:16;20.90;99.90
40287;DHT22;25998;46.604;13.610;2023-07-20T19:52:27;20.90;99.90
40287;DHT22;25998;46.604;13.610;2023-07-20T19:55:38;21.10;99.90
40287;DHT22;25998;46.604;13.610;2023-07-20T19:58:48;21.20;99.90
40287;DHT22;25998;46.604;13.610;2023-07-20T20:01:59;21.00;99.90
40287;DHT22;25998;46.604;13.610;2023-07-20T20:05:10;20.90;99.90
40287;DHT22;25998;46.604;13.610;2023-07-20T20:08:21;20.80;99.90
40287;DHT22;25998;46.604;13.610;2023-07-20T20:11:32;20.70;99.90